Latest Weather Observations for Clare

IDS60801

Issued at 5:01 pm CDT Saturday 3 December 2016 (issued every 30 minutes, with the page automatically refreshed every 10 minutes)

About weather observations | Map of weather stations | Latest weather observations for SA | Other Formats
Station Details ID: 021131 Name: CLARE HIGH SCHOOL Lat: -33.82 Lon: 138.59 Height: 395.0 m
Data from the previous 72 hours. | See also: Recent months at Clare
Date/Time
CDT
Temp
°C
App
Temp
°C
Dew
Point
°C
Rel
Hum
%
Delta-T
°C
Wind Press
QNH
hPa
Press
MSL
hPa
Rain since
9am
mm
Dir  Spd
km/h
Gust
km/h
Spd
kts
Gust
kts
03/05:00pm 28.9 25.7 5.1 22 12.6 W 11 20 6 11 1011.8 - 0.0
03/04:30pm 30.1 26.7 6.1 22 13.0 W 13 30 7 16 1011.8 - 0.0
03/04:00pm 30.2 25.7 6.1 22 13.0 WNW 19 30 10 16 1011.9 - 0.0
03/03:30pm 31.0 25.9 6.1 21 13.5 W 22 33 12 18 1011.9 - 0.0
03/03:00pm 30.2 25.7 6.1 22 13.0 W 19 32 10 17 1012.0 1010.7 0.0
03/02:30pm 30.7 25.7 6.6 22 13.2 WNW 22 35 12 19 1011.9 - 0.0
03/02:00pm 31.5 26.8 7.9 23 13.2 WNW 22 33 12 18 1012.0 - 0.0
03/01:30pm 32.2 29.4 8.4 23 13.5 NW 13 24 7 13 1012.0 - 0.0
03/01:00pm 30.7 27.3 7.8 24 12.8 NW 15 30 8 16 1012.2 - 0.0
03/12:30pm 30.3 26.5 7.5 24 12.6 W 17 24 9 13 1012.4 - 0.0
03/12:00pm 30.1 26.4 7.9 25 12.4 W 17 28 9 15 1012.7 1011.3 0.0
03/11:30am 28.1 25.1 6.2 25 11.7 NNW 11 19 6 10 1013.0 - 0.0
03/11:00am 27.1 23.7 6.0 26 11.2 NNE 13 20 7 11 1013.3 - 0.0
03/10:30am 25.5 22.2 6.2 29 10.2 NE 13 22 7 12 1013.5 - 0.0
03/10:00am 23.5 19.9 4.9 30 9.5 ENE 13 20 7 11 1013.8 - 0.0
03/09:30am 21.8 17.7 4.4 32 8.7 ENE 15 20 8 11 1014.0 - 0.0
03/09:00am 19.6 16.1 3.7 35 7.7 ENE 11 17 6 9 1014.3 1013.0 0.0
03/08:30am 17.4 13.7 4.7 43 6.2 ENE 13 20 7 11 1014.3 - 0.0
03/08:00am 15.6 12.7 4.6 48 5.3 E 9 15 5 8 1014.0 - 0.0
03/07:30am 13.9 11.4 4.5 53 4.4 E 7 15 4 8 1013.9 - 0.0
03/07:00am 13.0 9.6 4.2 55 4.1 E 11 15 6 8 1013.9 - 0.0
03/06:30am 11.7 8.8 4.4 61 3.4 E 9 15 5 8 1013.8 - 0.0
03/06:00am 11.4 8.1 4.6 63 3.1 E 11 17 6 9 1013.6 1012.2 0.0
03/05:30am 11.3 8.1 5.2 66 2.9 E 11 17 6 9 1013.6 - 0.0
03/05:00am 11.4 7.8 5.1 65 2.9 E 13 20 7 11 1013.2 - 0.0
03/04:30am 11.6 8.0 4.8 63 3.2 E 13 22 7 12 1013.1 - 0.0
03/04:00am 11.9 8.3 4.9 62 3.3 E 13 24 7 13 1013.0 - 0.0
03/03:30am 12.2 9.3 4.7 60 3.5 E 9 13 5 7 1012.9 - 0.0
03/03:00am 12.6 9.4 5.1 60 3.5 E 11 20 6 11 1013.1 1011.7 0.0
03/02:30am 12.6 9.9 5.5 62 3.4 E 9 17 5 9 1013.2 - 0.0
03/02:00am 12.7 10.4 5.6 62 3.4 E 7 13 4 7 1013.3 - 0.0
03/01:30am 13.3 10.7 5.9 61 3.6 E 9 15 5 8 1013.7 - 0.0
03/01:00am 13.7 11.5 6.3 61 3.6 E 7 13 4 7 1013.9 - 0.0
03/12:30am 14.1 11.6 6.7 61 3.7 E 9 17 5 9 1014.1 - 0.0
03/12:00am 14.3 11.6 7.4 63 3.5 E 11 17 6 9 1014.2 1012.9 0.0
 
Date/Time
CDT
Temp
°C
App
Temp
°C
Dew
Point
°C
Rel
Hum
%
Delta-T
°C
Wind Press
QNH
hPa
Press
MSL
hPa
Rain since
9am
mm
Dir  Spd
km/h
Gust
km/h
Spd
kts
Gust
kts
02/11:30pm 14.6 12.6 8.8 68 3.0 E 9 19 5 10 1014.3 - 0.0
02/11:00pm 14.1 12.9 9.5 74 2.4 E 6 9 3 5 1014.6 - 0.0
02/10:30pm 13.4 13.3 9.5 77 2.0 CALM 0 0 0 0 1014.8 - 0.0
02/10:00pm 13.6 13.4 9.1 74 2.3 CALM 0 0 0 0 1014.6 - 0.0
02/09:30pm 14.7 13.2 9.3 70 2.8 S 7 11 4 6 1014.4 - 0.0
02/09:00pm 15.2 13.0 9.3 68 3.1 S 11 17 6 9 1014.2 1012.9 0.0
02/08:30pm 16.3 14.4 9.0 62 3.8 SSW 9 17 5 9 1014.0 - 0.0
02/08:00pm 17.3 14.6 9.0 58 4.4 S 13 20 7 11 1013.8 - 0.0
02/07:30pm 18.9 16.2 8.8 52 5.4 S 13 20 7 11 1013.6 - 0.0
02/07:00pm 21.0 17.8 8.6 45 6.6 S 15 24 8 13 1013.3 - 0.0
02/06:30pm 21.5 18.0 8.7 44 6.9 SSW 17 30 9 16 1013.1 - 0.0
02/06:00pm 23.2 20.1 8.9 40 7.8 SSW 15 24 8 13 1012.9 1011.5 0.0
02/05:30pm 23.3 19.4 8.6 39 8.0 SSW 19 26 10 14 1012.8 - 0.0
02/05:00pm 22.9 19.5 9.0 41 7.6 SSW 17 30 9 16 1012.7 - 0.0
02/04:30pm 23.7 20.0 9.3 40 7.9 SSW 19 33 10 18 1012.6 - 0.0
02/04:00pm 25.0 21.5 8.9 36 8.9 SSW 17 26 9 14 1012.4 - 0.0
02/03:30pm 24.8 21.6 8.3 35 9.0 SSW 15 28 8 15 1012.4 - 0.0
02/03:00pm 24.9 21.3 5.2 28 10.2 SSW 13 26 7 14 1012.7 1011.3 0.0
02/02:30pm 26.2 23.4 6.8 29 10.4 SSW 11 19 6 10 1012.6 - 0.0
02/02:00pm 25.1 21.9 6.8 31 9.7 WSW 13 19 7 10 1012.8 - 0.0
02/01:30pm 23.9 21.5 7.1 34 8.9 S 9 19 5 10 1013.0 - 0.0
02/01:00pm 23.0 20.9 6.7 35 8.5 ESE 7 11 4 6 1013.3 - 0.0
02/12:30pm 22.9 20.6 7.4 37 8.2 ENE 9 17 5 9 1013.5 - 0.0
02/12:00pm 22.5 21.6 7.9 39 7.8 SSE 2 11 1 6 1013.8 1012.4 0.0
02/11:30am 22.1 20.5 7.9 40 7.6 NE 6 17 3 9 1013.8 - 0.0
02/11:00am 20.4 18.7 7.7 44 6.7 ESE 6 15 3 8 1013.9 - 0.0
02/10:30am 20.0 17.5 8.4 47 6.2 S 11 22 6 12 1013.8 - 0.0
02/10:00am 18.9 16.5 8.6 51 5.5 S 11 17 6 9 1013.8 - 0.0
02/09:30am 17.8 15.8 8.6 55 4.8 SSE 9 20 5 11 1013.9 - 0.0
02/09:00am 16.9 14.9 8.8 59 4.3 SE 9 17 5 9 1013.8 1012.4 0.0
02/08:30am 15.8 12.7 8.8 63 3.7 SSE 15 24 8 13 1013.6 - 0.0
02/08:00am 14.8 12.4 8.5 66 3.2 SE 11 24 6 13 1013.3 - 0.0
02/07:30am 14.1 12.3 9.3 73 2.5 SSE 9 17 5 9 1013.3 - 0.0
02/07:00am 12.3 10.3 10.2 87 1.1 S 11 17 6 9 1012.6 - 0.0
02/06:30am 11.6 10.4 10.2 91 0.7 SSE 7 11 4 6 1012.2 - 0.0
02/06:00am 11.3 11.4 10.2 93 0.6 CALM 0 0 0 0 1011.8 1010.4 0.0
02/05:30am 11.7 10.9 10.9 95 0.4 SSE 6 11 3 6 1011.5 - 0.0
02/05:00am 11.3 11.3 9.9 91 0.7 CALM 0 0 0 0 1011.2 - 0.0
02/04:30am 12.0 10.8 9.7 86 1.2 SSE 6 9 3 5 1011.0 - 0.0
02/04:00am 11.3 10.5 6.6 73 2.3 CALM 0 0 0 0 1010.8 - 0.0
02/03:30am 11.6 10.8 6.3 70 2.6 CALM 0 0 0 0 1010.8 - 0.0
02/03:00am 12.0 11.2 6.5 69 2.7 CALM 0 0 0 0 1010.8 1009.4 0.0
02/02:30am 12.1 11.2 5.9 66 3.0 CALM 0 0 0 0 1010.5 - 0.0
02/02:00am 12.7 11.7 5.6 62 3.4 CALM 0 0 0 0 1010.1 - 0.0
02/01:30am 12.7 11.6 4.9 59 3.7 CALM 0 0 0 0 1010.0 - 0.0
02/01:00am 13.3 12.1 4.5 55 4.1 CALM 0 0 0 0 1009.8 - 0.0
02/12:30am 13.8 12.6 4.4 53 4.4 CALM 0 0 0 0 1009.7 - 0.0
02/12:00am 14.8 13.6 4.5 50 4.9 CALM 0 0 0 0 1009.7 1008.4 0.0
 
Date/Time
CDT
Temp
°C
App
Temp
°C
Dew
Point
°C
Rel
Hum
%
Delta-T
°C
Wind Press
QNH
hPa
Press
MSL
hPa
Rain since
9am
mm
Dir  Spd
km/h
Gust
km/h
Spd
kts
Gust
kts
01/11:30pm 15.7 12.7 4.1 46 5.5 SSE 9 17 5 9 1009.7 - 0.0
01/11:00pm 16.0 13.5 5.0 48 5.3 ESE 7 13 4 7 1009.7 - 0.0
01/10:30pm 16.5 14.2 5.5 48 5.4 ESE 7 11 4 6 1009.7 - 0.0
01/10:00pm 16.9 14.3 6.1 49 5.4 SE 9 19 5 10 1009.7 - 0.0
01/09:30pm 17.7 15.1 6.3 47 5.7 SE 9 15 5 8 1009.7 - 0.0
01/09:00pm 18.6 16.8 3.6 37 7.2 SSE 2 9 1 5 1009.4 1008.0 0.0
01/08:30pm 19.8 16.6 3.1 33 8.0 SSE 9 13 5 7 1009.2 - 0.0
01/08:00pm 21.0 16.8 1.8 28 9.0 S 13 17 7 9 1008.9 - 0.0
01/07:30pm 23.1 19.3 -1.1 20 11.0 W 9 24 5 13 1008.8 - 0.0
01/07:00pm 24.0 20.0 -2.5 17 11.8 W 9 15 5 8 1008.9 - 0.0
01/06:30pm 24.4 19.8 -3.9 15 12.3 W 11 17 6 9 1008.8 - 0.0
01/06:00pm 24.3 18.3 -6.9 12 12.8 W 17 26 9 14 1008.7 1007.3 0.0
01/05:30pm 25.0 19.0 -6.3 12 13.1 W 17 30 9 16 1008.5 - 0.0
01/05:00pm 25.8 20.8 -1.1 17 12.4 WSW 15 24 8 13 1008.3 - 0.0
01/04:30pm 25.4 19.6 -1.4 17 12.3 W 19 26 10 14 1008.4 - 0.0
01/04:00pm 25.7 20.7 -1.2 17 12.4 WSW 15 28 8 15 1008.7 - 0.0
01/03:30pm 24.7 18.6 0.3 20 11.5 WSW 22 26 12 14 1008.8 - 0.0
01/03:00pm 25.0 19.8 -0.2 19 11.8 WNW 17 26 9 14 1008.7 1007.3 0.0
01/02:30pm 24.1 18.9 0.4 21 11.1 WNW 17 26 9 14 1009.1 - 0.0
01/02:00pm 22.9 19.3 2.9 27 9.8 WNW 11 19 6 10 1009.5 - 0.0
01/01:30pm 23.2 18.4 2.7 26 10.0 WNW 17 28 9 15 1009.8 - 0.0
01/01:00pm 24.6 19.2 -1.3 18 11.8 W 17 28 9 15 1009.6 - 0.0
01/12:30pm 22.7 18.1 -1.4 20 10.8 WNW 13 19 7 10 1009.5 - 0.0
01/12:00pm 24.5 19.2 -0.6 19 11.6 WNW 17 26 9 14 1009.6 1008.3 0.0
01/11:30am 23.6 19.1 0.0 21 11.0 NW 13 22 7 12 1009.5 - 0.0
01/11:00am 22.4 19.8 3.0 28 9.5 N 6 13 3 7 1009.6 - 0.0
01/10:30am 21.1 18.6 3.8 32 8.5 NNW 6 13 3 7 1009.4 - 0.0
01/10:00am 19.1 17.4 5.9 42 6.6 N 4 13 2 7 1009.5 - 0.0
01/09:30am 17.6 16.9 7.1 50 5.4 CALM 0 0 0 0 1009.5 - 0.0
01/09:00am 16.1 15.5 7.6 57 4.3 CALM 0 0 0 0 1010.1 1008.7 0.2
01/08:30am 14.4 14.0 8.1 66 3.2 CALM 0 0 0 0 1010.2 - 0.2
01/08:00am 13.2 12.8 8.1 71 2.6 CALM 0 0 0 0 1010.0 - 0.2
01/07:30am 10.1 9.7 8.2 88 0.9 CALM 0 0 0 0 1009.8 - 0.2
01/07:00am 8.1 7.6 8.0 99 0.0 CALM 0 0 0 0 1009.4 - 0.2
01/06:30am 6.4 5.6 6.3 99 0.0 CALM 0 0 0 0 1009.1 - 0.2
01/06:00am 6.5 5.7 6.4 99 0.0 CALM 0 0 0 0 1009.1 1007.7 0.2
01/05:30am 6.6 5.7 6.2 97 0.2 CALM 0 0 0 0 1009.1 - 0.2
01/05:00am 7.5 6.0 6.8 95 0.3 ESE 4 6 2 3 1008.9 - 0.2
01/04:30am 7.2 6.4 6.5 95 0.3 CALM 0 0 0 0 1009.2 - 0.2
01/04:00am 7.8 5.9 7.5 98 0.1 E 7 9 4 5 1008.9 - 0.2
01/03:30am 7.0 6.3 6.9 99 0.0 CALM 0 0 0 0 1009.8 - 0.2
01/03:00am 7.0 6.1 5.9 93 0.5 CALM 0 0 0 0 1009.7 1008.4 0.2
01/02:30am 7.9 7.1 6.7 92 0.6 CALM 0 0 0 0 1009.3 - 0.2
01/02:00am 8.6 7.2 7.1 90 0.7 E 4 7 2 4 1009.5 - 0.2
01/01:30am 8.7 6.8 7.6 93 0.5 E 7 11 4 6 1010.0 - 0.2
01/01:00am 8.2 6.4 7.3 94 0.4 E 6 9 3 5 1010.4 - 0.2
01/12:30am 8.4 7.7 7.0 91 0.7 CALM 0 0 0 0 1010.9 - 0.2
01/12:00am 8.1 7.3 6.7 91 0.7 CALM 0 6 0 3 1011.3 1009.9 0.2
 
Date/Time
CDT
Temp
°C
App
Temp
°C
Dew
Point
°C
Rel
Hum
%
Delta-T
°C
Wind Press
QNH
hPa
Press
MSL
hPa
Rain since
9am
mm
Dir  Spd
km/h
Gust
km/h
Spd
kts
Gust
kts
30/11:30pm 8.8 8.1 7.1 89 0.8 CALM 0 0 0 0 1011.7 - 0.2
30/11:00pm 9.6 8.9 7.0 84 1.3 CALM 0 0 0 0 1011.9 - 0.2
30/10:30pm 10.5 9.8 6.8 78 1.8 CALM 0 0 0 0 1012.1 - 0.2
30/10:00pm 12.0 10.0 7.1 72 2.4 S 7 11 4 6 1012.3 - 0.2
30/09:30pm 12.6 10.3 7.5 71 2.5 S 9 13 5 7 1012.1 - 0.2
30/09:00pm 13.4 11.0 7.2 66 3.1 S 9 15 5 8 1012.0 1011.1 0.2
30/08:30pm 14.5 11.8 7.3 62 3.6 S 11 17 6 9 1011.6 - 0.2
30/08:00pm 15.9 13.1 7.1 56 4.4 SSW 11 19 6 10 1011.5 - 0.2
30/07:30pm 17.3 15.0 7.4 52 5.1 SSW 9 17 5 9 1011.0 - 0.2
30/07:00pm 18.9 15.7 7.0 46 6.1 SSW 13 20 7 11 1010.7 - 0.2
30/06:30pm 19.2 15.3 7.0 45 6.3 S 17 32 9 17 1010.4 - 0.2
30/06:00pm 19.9 16.1 7.6 45 6.4 SSW 17 30 9 16 1010.3 1009.3 0.2
30/05:30pm 20.0 15.7 8.0 46 6.3 SW 20 35 11 19 1010.2 - 0.2

Other Formats:

Comma delimited format used in spreadsheet applications
http://www.bom.gov.au/fwo/IDS60801/IDS60801.95667.axf

JavaScript Object Notation format (JSON) in row-major order
http://www.bom.gov.au/fwo/IDS60801/IDS60801.95667.json